sensor_id;sensor_type;location;lat;lon;timestamp;pressure;altitude;pressure_sealevel;temperature;humidity
66887;BME280;53798;51.680;5.976;2022-09-01T00:00:08;101957.97;;;16.73;53.38
66887;BME280;53798;51.680;5.976;2022-09-01T00:02:39;101956.34;;;16.69;53.61
66887;BME280;53798;51.680;5.976;2022-09-01T00:05:09;101962.69;;;16.65;53.79
66887;BME280;53798;51.680;5.976;2022-09-01T00:07:38;101952.13;;;16.64;54.06
66887;BME280;53798;51.680;5.976;2022-09-01T00:10:07;101954.88;;;16.60;54.06
66887;BME280;53798;51.680;5.976;2022-09-01T00:12:35;101957.63;;;16.59;54.10
66887;BME280;53798;51.680;5.976;2022-09-01T00:15:05;101964.69;;;16.60;54.39
66887;BME280;53798;51.680;5.976;2022-09-01T00:17:34;101965.78;;;16.54;54.38
66887;BME280;53798;51.680;5.976;2022-09-01T00:20:03;101953.47;;;16.52;54.58
66887;BME280;53798;51.680;5.976;2022-09-01T00:22:32;101964.91;;;16.54;54.47
66887;BME280;53798;51.680;5.976;2022-09-01T00:25:02;101956.97;;;16.52;54.59
66887;BME280;53798;51.680;5.976;2022-09-01T00:27:30;101963.19;;;16.53;54.79
66887;BME280;53798;51.680;5.976;2022-09-01T00:29:58;101957.09;;;16.49;54.83
66887;BME280;53798;51.680;5.976;2022-09-01T00:32:26;101957.22;;;16.46;54.99
66887;BME280;53798;51.680;5.976;2022-09-01T00:34:54;101954.59;;;16.44;55.19
66887;BME280;53798;51.680;5.976;2022-09-01T00:37:22;101950.34;;;16.40;55.32
66887;BME280;53798;51.680;5.976;2022-09-01T00:39:49;101960.16;;;16.38;55.50
66887;BME280;53798;51.680;5.976;2022-09-01T00:42:16;101957.56;;;16.37;55.60
66887;BME280;53798;51.680;5.976;2022-09-01T00:44:43;101959.50;;;16.32;55.77
66887;BME280;53798;51.680;5.976;2022-09-01T00:47:12;101948.13;;;16.28;55.95
66887;BME280;53798;51.680;5.976;2022-09-01T00:49:44;101952.69;;;16.24;55.91
66887;BME280;53798;51.680;5.976;2022-09-01T00:52:38;101943.88;;;16.22;56.12
66887;BME280;53798;51.680;5.976;2022-09-01T00:55:29;101949.31;;;16.19;56.50
66887;BME280;53798;51.680;5.976;2022-09-01T00:58:00;101947.75;;;16.13;56.83
66887;BME280;53798;51.680;5.976;2022-09-01T01:00:33;101947.00;;;16.10;56.79
66887;BME280;53798;51.680;5.976;2022-09-01T01:03:09;101941.81;;;16.07;56.98
66887;BME280;53798;51.680;5.976;2022-09-01T01:05:42;101940.16;;;16.03;57.21
66887;BME280;53798;51.680;5.976;2022-09-01T01:08:29;101941.25;;;15.97;57.16
66887;BME280;53798;51.680;5.976;2022-09-01T01:11:01;101935.19;;;15.93;57.49
66887;BME280;53798;51.680;5.976;2022-09-01T01:13:49;101928.22;;;15.89;57.63
66887;BME280;53798;51.680;5.976;2022-09-01T01:16:22;101934.66;;;15.82;57.52
66887;BME280;53798;51.680;5.976;2022-09-01T01:18:52;101931.31;;;15.77;57.77
66887;BME280;53798;51.680;5.976;2022-09-01T01:21:28;101935.88;;;15.72;57.85
66887;BME280;53798;51.680;5.976;2022-09-01T01:24:28;101932.53;;;15.66;58.00
66887;BME280;53798;51.680;5.976;2022-09-01T01:26:59;101932.63;;;15.63;58.32
66887;BME280;53798;51.680;5.976;2022-09-01T01:29:32;101938.09;;;15.59;58.37
66887;BME280;53798;51.680;5.976;2022-09-01T01:32:03;101940.84;;;15.56;58.60
66887;BME280;53798;51.680;5.976;2022-09-01T01:34:39;101948.94;;;15.52;58.78
66887;BME280;53798;51.680;5.976;2022-09-01T01:37:08;101939.28;;;15.50;58.88
66887;BME280;53798;51.680;5.976;2022-09-01T01:39:37;101943.75;;;15.48;59.18
66887;BME280;53798;51.680;5.976;2022-09-01T01:42:07;101941.22;;;15.45;59.27
66887;BME280;53798;51.680;5.976;2022-09-01T01:44:36;101941.31;;;15.42;59.30
66887;BME280;53798;51.680;5.976;2022-09-01T01:47:07;101945.91;;;15.36;59.38
66887;BME280;53798;51.680;5.976;2022-09-01T01:49:40;101951.22;;;15.36;59.66
66887;BME280;53798;51.680;5.976;2022-09-01T01:52:12;101947.72;;;15.36;59.83
66887;BME280;53798;51.680;5.976;2022-09-01T01:54:44;101947.78;;;15.34;59.63
66887;BME280;53798;51.680;5.976;2022-09-01T01:57:12;101948.69;;;15.33;59.87
66887;BME280;53798;51.680;5.976;2022-09-01T01:59:43;101947.72;;;15.36;59.96
66887;BME280;53798;51.680;5.976;2022-09-01T02:02:11;101961.84;;;15.36;59.92
66887;BME280;53798;51.680;5.976;2022-09-01T02:04:39;101952.09;;;15.37;59.93
66887;BME280;53798;51.680;5.976;2022-09-01T02:07:10;101952.03;;;15.38;59.84
66887;BME280;53798;51.680;5.976;2022-09-01T02:09:39;101950.31;;;15.37;59.88
66887;BME280;53798;51.680;5.976;2022-09-01T02:12:15;101956.53;;;15.36;59.79
66887;BME280;53798;51.680;5.976;2022-09-01T02:14:45;101954.84;;;15.34;59.96
66887;BME280;53798;51.680;5.976;2022-09-01T02:17:12;101962.88;;;15.32;60.00
66887;BME280;53798;51.680;5.976;2022-09-01T02:19:39;101957.56;;;15.32;59.92
66887;BME280;53798;51.680;5.976;2022-09-01T02:22:09;101949.59;;;15.32;59.85
66887;BME280;53798;51.680;5.976;2022-09-01T02:24:37;101954.84;;;15.34;59.50
66887;BME280;53798;51.680;5.976;2022-09-01T02:27:04;101955.78;;;15.33;59.51
66887;BME280;53798;51.680;5.976;2022-09-01T02:29:33;101953.13;;;15.33;59.39
66887;BME280;53798;51.680;5.976;2022-09-01T02:32:09;101955.84;;;15.31;59.34
66887;BME280;53798;51.680;5.976;2022-09-01T02:34:38;101947.91;;;15.30;59.37
66887;BME280;53798;51.680;5.976;2022-09-01T02:37:06;101953.22;;;15.30;59.15
66887;BME280;53798;51.680;5.976;2022-09-01T02:39:33;101945.28;;;15.30;59.16
66887;BME280;53798;51.680;5.976;2022-09-01T02:42:00;101947.03;;;15.29;58.77
66887;BME280;53798;51.680;5.976;2022-09-01T02:44:29;101944.44;;;15.28;58.62
66887;BME280;53798;51.680;5.976;2022-09-01T02:46:58;101941.88;;;15.25;58.59
66887;BME280;53798;51.680;5.976;2022-09-01T02:49:27;101937.59;;;15.20;58.77
66887;BME280;53798;51.680;5.976;2022-09-01T02:51:57;101936.72;;;15.20;58.73
66887;BME280;53798;51.680;5.976;2022-09-01T02:54:30;101939.44;;;15.18;58.77
66887;BME280;53798;51.680;5.976;2022-09-01T02:56:59;101935.94;;;15.16;58.77
66887;BME280;53798;51.680;5.976;2022-09-01T02:59:27;101936.88;;;15.15;58.60
66887;BME280;53798;51.680;5.976;2022-09-01T03:01:59;101929.88;;;15.13;58.61
66887;BME280;53798;51.680;5.976;2022-09-01T03:04:26;101933.53;;;15.09;58.62
66887;BME280;53798;51.680;5.976;2022-09-01T03:07:02;101929.09;;;15.09;58.40
66887;BME280;53798;51.680;5.976;2022-09-01T03:09:32;101936.16;;;15.10;58.40
66887;BME280;53798;51.680;5.976;2022-09-01T03:12:01;101931.84;;;15.06;58.49
66887;BME280;53798;51.680;5.976;2022-09-01T03:14:28;101938.97;;;15.05;58.55
66887;BME280;53798;51.680;5.976;2022-09-01T03:16:55;101941.72;;;15.01;58.56
66887;BME280;53798;51.680;5.976;2022-09-01T03:19:27;101936.56;;;14.96;58.64
66887;BME280;53798;51.680;5.976;2022-09-01T03:21:58;101945.56;;;14.92;58.89
66887;BME280;53798;51.680;5.976;2022-09-01T03:24:28;101943.88;;;14.89;58.96
66887;BME280;53798;51.680;5.976;2022-09-01T03:26:55;101937.88;;;14.83;59.19
66887;BME280;53798;51.680;5.976;2022-09-01T03:29:23;101943.34;;;14.78;59.23
66887;BME280;53798;51.680;5.976;2022-09-01T03:31:51;101941.69;;;14.74;59.54
66887;BME280;53798;51.680;5.976;2022-09-01T03:34:19;101948.09;;;14.67;59.69
66887;BME280;53798;51.680;5.976;2022-09-01T03:36:51;101942.91;;;14.60;59.90
66887;BME280;53798;51.680;5.976;2022-09-01T03:39:25;101943.88;;;14.58;60.05
66887;BME280;53798;51.680;5.976;2022-09-01T03:41:52;101944.91;;;14.54;60.14
66887;BME280;53798;51.680;5.976;2022-09-01T03:44:21;101940.66;;;14.48;60.44
66887;BME280;53798;51.680;5.976;2022-09-01T03:46:48;101939.91;;;14.43;60.39
66887;BME280;53798;51.680;5.976;2022-09-01T03:49:18;101936.47;;;14.39;60.68
66887;BME280;53798;51.680;5.976;2022-09-01T03:51:54;101935.63;;;14.37;60.78
66887;BME280;53798;51.680;5.976;2022-09-01T03:54:24;101938.41;;;14.34;60.97
66887;BME280;53798;51.680;5.976;2022-09-01T03:56:55;101941.13;;;14.31;60.92
66887;BME280;53798;51.680;5.976;2022-09-01T03:59:25;101945.66;;;14.27;61.29
66887;BME280;53798;51.680;5.976;2022-09-01T04:01:54;101944.03;;;14.22;61.45
66887;BME280;53798;51.680;5.976;2022-09-01T04:04:23;101934.47;;;14.16;61.56
66887;BME280;53798;51.680;5.976;2022-09-01T04:06:51;101943.41;;;14.13;61.53
66887;BME280;53798;51.680;5.976;2022-09-01T04:09:19;101939.09;;;14.09;61.76
66887;BME280;53798;51.680;5.976;2022-09-01T04:11:46;101939.22;;;14.05;61.80
66887;BME280;53798;51.680;5.976;2022-09-01T04:14:15;101934.88;;;14.02;61.91
66887;BME280;53798;51.680;5.976;2022-09-01T04:16:43;101935.78;;;14.00;61.82
66887;BME280;53798;51.680;5.976;2022-09-01T04:19:34;101933.19;;;13.98;61.84
66887;BME280;53798;51.680;5.976;2022-09-01T04:22:04;101930.72;;;13.92;62.00
66887;BME280;53798;51.680;5.976;2022-09-01T04:24:41;101937.84;;;13.90;62.05
66887;BME280;53798;51.680;5.976;2022-09-01T04:27:13;101938.81;;;13.86;62.05
66887;BME280;53798;51.680;5.976;2022-09-01T04:29:42;101936.22;;;13.84;62.26
66887;BME280;53798;51.680;5.976;2022-09-01T04:32:12;101932.78;;;13.80;62.37
66887;BME280;53798;51.680;5.976;2022-09-01T04:34:45;101932.81;;;13.79;62.15
66887;BME280;53798;51.680;5.976;2022-09-01T04:37:19;101929.34;;;13.77;62.26
66887;BME280;53798;51.680;5.976;2022-09-01T04:39:57;101944.41;;;13.75;62.20
66887;BME280;53798;51.680;5.976;2022-09-01T04:42:28;101938.22;;;13.74;62.22
66887;BME280;53798;51.680;5.976;2022-09-01T04:45:00;101935.63;;;13.73;62.17
66887;BME280;53798;51.680;5.976;2022-09-01T04:47:37;101941.88;;;13.70;62.32
66887;BME280;53798;51.680;5.976;2022-09-01T04:50:10;101935.75;;;13.68;62.37
66887;BME280;53798;51.680;5.976;2022-09-01T04:52:58;101941.09;;;13.66;62.37
66887;BME280;53798;51.680;5.976;2022-09-01T04:55:36;101934.06;;;13.65;62.31
66887;BME280;53798;51.680;5.976;2022-09-01T04:58:11;101940.22;;;13.66;62.27
66887;BME280;53798;51.680;5.976;2022-09-01T05:00:46;101928.78;;;13.64;62.36
66887;BME280;53798;51.680;5.976;2022-09-01T05:03:18;101942.88;;;13.66;62.30
66887;BME280;53798;51.680;5.976;2022-09-01T05:06:24;101940.22;;;13.66;62.23
66887;BME280;53798;51.680;5.976;2022-09-01T05:09:01;101934.00;;;13.67;62.15
66887;BME280;53798;51.680;5.976;2022-09-01T05:11:40;101948.16;;;13.68;62.19
66887;BME280;53798;51.680;5.976;2022-09-01T05:14:18;101942.75;;;13.71;62.15
66887;BME280;53798;51.680;5.976;2022-09-01T05:16:48;101942.72;;;14.05;61.20
66887;BME280;53798;51.680;5.976;2022-09-01T05:19:17;101952.13;;;14.17;60.70
66887;BME280;53798;51.680;5.976;2022-09-01T05:21:47;101945.34;;;14.07;60.99
66887;BME280;53798;51.680;5.976;2022-09-01T05:24:18;101941.84;;;14.05;61.05
66887;BME280;53798;51.680;5.976;2022-09-01T05:26:47;101941.00;;;14.36;60.39
66887;BME280;53798;51.680;5.976;2022-09-01T05:29:17;101944.53;;;14.66;59.46
66887;BME280;53798;51.680;5.976;2022-09-01T05:31:47;101945.00;;;14.51;59.94
66887;BME280;53798;51.680;5.976;2022-09-01T05:34:18;101945.97;;;14.47;60.04
66887;BME280;53798;51.680;5.976;2022-09-01T05:36:57;101945.03;;;14.49;59.87
66887;BME280;53798;51.680;5.976;2022-09-01T05:39:26;101951.97;;;14.55;59.85
66887;BME280;53798;51.680;5.976;2022-09-01T05:41:54;101949.94;;;14.63;59.57
66887;BME280;53798;51.680;5.976;2022-09-01T05:44:21;101952.44;;;14.69;59.53
66887;BME280;53798;51.680;5.976;2022-09-01T05:46:51;101957.53;;;14.77;59.47
66887;BME280;53798;51.680;5.976;2022-09-01T05:49:19;101949.28;;;14.86;59.12
66887;BME280;53798;51.680;5.976;2022-09-01T05:51:49;101962.31;;;14.94;58.80
66887;BME280;53798;51.680;5.976;2022-09-01T05:54:21;101955.13;;;14.98;58.62
66887;BME280;53798;51.680;5.976;2022-09-01T05:56:51;101956.72;;;15.03;58.33
66887;BME280;53798;51.680;5.976;2022-09-01T05:59:24;101958.31;;;15.09;58.21
66887;BME280;53798;51.680;5.976;2022-09-01T06:01:58;101961.75;;;15.13;58.07
66887;BME280;53798;51.680;5.976;2022-09-01T06:04:28;101952.75;;;15.17;57.97
66887;BME280;53798;51.680;5.976;2022-09-01T06:07:01;101964.97;;;15.22;57.79
66887;BME280;53798;51.680;5.976;2022-09-01T06:09:45;101962.22;;;15.26;57.88
66887;BME280;53798;51.680;5.976;2022-09-01T06:12:17;101967.22;;;15.35;57.66
66887;BME280;53798;51.680;5.976;2022-09-01T06:14:51;101967.91;;;15.42;57.61
66887;BME280;53798;51.680;5.976;2022-09-01T06:17:24;101962.38;;;15.48;57.45
66887;BME280;53798;51.680;5.976;2022-09-01T06:19:56;101973.56;;;15.58;56.96
66887;BME280;53798;51.680;5.976;2022-09-01T06:22:27;101970.84;;;15.59;56.74
66887;BME280;53798;51.680;5.976;2022-09-01T06:24:56;101968.25;;;15.58;56.88
66887;BME280;53798;51.680;5.976;2022-09-01T06:27:32;101965.50;;;15.61;56.79
66887;BME280;53798;51.680;5.976;2022-09-01T06:30:05;101971.69;;;15.61;56.98
66887;BME280;53798;51.680;5.976;2022-09-01T06:32:46;101971.69;;;15.61;56.70
66887;BME280;53798;51.680;5.976;2022-09-01T06:35:15;101975.34;;;15.57;56.88
66887;BME280;53798;51.680;5.976;2022-09-01T06:37:44;101974.59;;;15.53;56.90
66887;BME280;53798;51.680;5.976;2022-09-01T06:40:33;101977.38;;;15.50;57.34
66887;BME280;53798;51.680;5.976;2022-09-01T06:43:02;101977.53;;;15.46;57.14
66887;BME280;53798;51.680;5.976;2022-09-01T06:45:42;101978.53;;;15.42;57.50
66887;BME280;53798;51.680;5.976;2022-09-01T06:48:15;101970.78;;;15.35;57.56
66887;BME280;53798;51.680;5.976;2022-09-01T06:50:43;101976.09;;;15.35;57.71
66887;BME280;53798;51.680;5.976;2022-09-01T06:53:33;101978.75;;;15.35;57.58
66887;BME280;53798;51.680;5.976;2022-09-01T06:56:05;101977.69;;;15.40;57.84
66887;BME280;53798;51.680;5.976;2022-09-01T06:58:33;101979.09;;;15.51;57.79
66887;BME280;53798;51.680;5.976;2022-09-01T07:01:07;101978.69;;;15.64;57.61
66887;BME280;53798;51.680;5.976;2022-09-01T07:03:48;101981.16;;;15.70;57.75
66887;BME280;53798;51.680;5.976;2022-09-01T07:06:27;101976.53;;;15.75;57.52
66887;BME280;53798;51.680;5.976;2022-09-01T07:09:16;101983.28;;;15.86;57.40
66887;BME280;53798;51.680;5.976;2022-09-01T07:12:06;101978.25;;;16.03;57.08
66887;BME280;53798;51.680;5.976;2022-09-01T07:14:54;101990.84;;;16.23;56.96
66887;BME280;53798;51.680;5.976;2022-09-01T07:17:51;101979.00;;;16.57;56.45
66887;BME280;53798;51.680;5.976;2022-09-01T07:20:23;101975.00;;;16.91;54.70
66887;BME280;53798;51.680;5.976;2022-09-01T07:22:56;101979.03;;;17.26;54.03
66887;BME280;53798;51.680;5.976;2022-09-01T07:25:45;101984.03;;;17.56;53.14
66887;BME280;53798;51.680;5.976;2022-09-01T07:28:31;101983.59;;;17.87;52.24
66887;BME280;53798;51.680;5.976;2022-09-01T07:31:03;101983.50;;;18.11;50.87
66887;BME280;53798;51.680;5.976;2022-09-01T07:33:53;101976.34;;;18.32;49.99
66887;BME280;53798;51.680;5.976;2022-09-01T07:36:43;101977.50;;;18.45;50.36
66887;BME280;53798;51.680;5.976;2022-09-01T07:39:31;101978.41;;;18.65;49.70
66887;BME280;53798;51.680;5.976;2022-09-01T07:42:39;101982.97;;;18.82;49.14
66887;BME280;53798;51.680;5.976;2022-09-01T07:45:26;101972.72;;;18.92;49.37
66887;BME280;53798;51.680;5.976;2022-09-01T07:47:57;101982.47;;;19.12;48.32
66887;BME280;53798;51.680;5.976;2022-09-01T07:50:41;101979.06;;;19.28;48.26
66887;BME280;53798;51.680;5.976;2022-09-01T07:53:35;101977.25;;;19.46;47.70
66887;BME280;53798;51.680;5.976;2022-09-01T07:56:08;101972.00;;;19.62;47.31
66887;BME280;53798;51.680;5.976;2022-09-01T07:58:42;101976.94;;;19.89;46.10
66887;BME280;53798;51.680;5.976;2022-09-01T08:01:12;101975.28;;;20.04;46.14
66887;BME280;53798;51.680;5.976;2022-09-01T08:03:47;101971.88;;;20.17;45.97
66887;BME280;53798;51.680;5.976;2022-09-01T08:06:21;101971.81;;;20.35;44.70
66887;BME280;53798;51.680;5.976;2022-09-01T08:08:57;101970.47;;;20.44;44.90
66887;BME280;53798;51.680;5.976;2022-09-01T08:11:28;101973.16;;;20.60;43.64
66887;BME280;53798;51.680;5.976;2022-09-01T08:14:16;101976.34;;;20.67;43.84
66887;BME280;53798;51.680;5.976;2022-09-01T08:16:46;101975.81;;;20.77;43.13
66887;BME280;53798;51.680;5.976;2022-09-01T08:19:21;101972.59;;;20.87;42.55
66887;BME280;53798;51.680;5.976;2022-09-01T08:22:06;101979.34;;;20.94;42.56
66887;BME280;53798;51.680;5.976;2022-09-01T08:24:53;101977.97;;;21.03;42.50
66887;BME280;53798;51.680;5.976;2022-09-01T08:27:24;101980.03;;;21.14;42.31
66887;BME280;53798;51.680;5.976;2022-09-01T08:29:51;101982.69;;;21.30;41.30
66887;BME280;53798;51.680;5.976;2022-09-01T08:32:18;101983.22;;;21.36;41.02
66887;BME280;53798;51.680;5.976;2022-09-01T08:34:46;101983.22;;;21.36;41.62
66887;BME280;53798;51.680;5.976;2022-09-01T08:37:14;101986.22;;;21.46;41.04
66887;BME280;53798;51.680;5.976;2022-09-01T08:39:41;101982.50;;;21.49;41.32
66887;BME280;53798;51.680;5.976;2022-09-01T08:45:21;101974.50;;;21.63;40.79
66887;BME280;53798;51.680;5.976;2022-09-01T08:48:19;101985.47;;;21.75;40.52
66887;BME280;53798;51.680;5.976;2022-09-01T08:51:22;101981.97;;;21.88;40.01
66887;BME280;53798;51.680;5.976;2022-09-01T08:54:22;101979.50;;;22.00;39.59
66887;BME280;53798;51.680;5.976;2022-09-01T08:57:05;101972.81;;;22.07;39.28
66887;BME280;53798;51.680;5.976;2022-09-01T09:00:01;101978.63;;;22.14;39.19
66887;BME280;53798;51.680;5.976;2022-09-01T09:03:37;101973.75;;;22.21;39.07
66887;BME280;53798;51.680;5.976;2022-09-01T09:17:39;101955.78;;;22.93;37.13
66887;BME280;53798;51.680;5.976;2022-09-01T09:20:11;101950.19;;;22.96;37.67
66887;BME280;53798;51.680;5.976;2022-09-01T09:22:38;101953.03;;;23.08;36.26
66887;BME280;53798;51.680;5.976;2022-09-01T09:25:15;101956.31;;;23.13;36.13
66887;BME280;53798;51.680;5.976;2022-09-01T09:27:49;101950.53;;;23.19;35.47
66887;BME280;53798;51.680;5.976;2022-09-01T09:30:28;101955.31;;;23.29;34.67
66887;BME280;53798;51.680;5.976;2022-09-01T09:33:03;101946.25;;;23.30;34.97
66887;BME280;53798;51.680;5.976;2022-09-01T09:36:15;101933.91;;;23.40;34.70
66887;BME280;53798;51.680;5.976;2022-09-01T09:38:43;101925.22;;;23.49;33.89
66887;BME280;53798;51.680;5.976;2022-09-01T09:41:19;101930.09;;;23.57;34.36
66887;BME280;53798;51.680;5.976;2022-09-01T09:46:48;101925.75;;;23.95;32.45
66887;BME280;53798;51.680;5.976;2022-09-01T09:49:23;101921.28;;;23.94;31.79
66887;BME280;53798;51.680;5.976;2022-09-01T09:54:38;101916.25;;;24.02;31.80
66887;BME280;53798;51.680;5.976;2022-09-01T09:57:24;101906.13;;;24.06;30.98
66887;BME280;53798;51.680;5.976;2022-09-01T10:02:42;101900.72;;;24.18;31.26
66887;BME280;53798;51.680;5.976;2022-09-01T10:08:00;101913.88;;;24.60;30.70
66887;BME280;53798;51.680;5.976;2022-09-01T10:10:40;101903.53;;;24.67;29.80
66887;BME280;53798;51.680;5.976;2022-09-01T10:13:13;101893.63;;;24.55;30.31
66887;BME280;53798;51.680;5.976;2022-09-01T10:15:53;101900.91;;;24.65;29.74
66887;BME280;53798;51.680;5.976;2022-09-01T10:18:28;101905.31;;;24.79;29.36
66887;BME280;53798;51.680;5.976;2022-09-01T10:21:03;101889.41;;;24.76;29.76
66887;BME280;53798;51.680;5.976;2022-09-01T10:23:37;101891.97;;;24.78;29.74
66887;BME280;53798;51.680;5.976;2022-09-01T10:26:11;101895.16;;;24.83;29.46
66887;BME280;53798;51.680;5.976;2022-09-01T10:28:55;101890.81;;;24.93;29.90
66887;BME280;53798;51.680;5.976;2022-09-01T10:31:26;101892.97;;;25.12;28.18
66887;BME280;53798;51.680;5.976;2022-09-01T10:34:01;101895.81;;;25.11;27.23
66887;BME280;53798;51.680;5.976;2022-09-01T10:36:34;101896.53;;;24.89;27.30
66887;BME280;53798;51.680;5.976;2022-09-01T10:39:03;101888.16;;;24.80;27.79
66887;BME280;53798;51.680;5.976;2022-09-01T10:41:50;101892.59;;;24.81;27.20
66887;BME280;53798;51.680;5.976;2022-09-01T10:44:30;101883.13;;;24.76;26.53
66887;BME280;53798;51.680;5.976;2022-09-01T10:47:25;101895.53;;;24.65;27.07
66887;BME280;53798;51.680;5.976;2022-09-01T10:50:02;101887.13;;;24.70;26.83
66887;BME280;53798;51.680;5.976;2022-09-01T10:55:25;101872.47;;;24.74;27.41
66887;BME280;53798;51.680;5.976;2022-09-01T11:06:59;101870.31;;;24.91;27.65
66887;BME280;53798;51.680;5.976;2022-09-01T11:10:20;101878.25;;;25.05;26.77
66887;BME280;53798;51.680;5.976;2022-09-01T11:22:22;101874.94;;;25.02;27.34
66887;BME280;53798;51.680;5.976;2022-09-01T11:28:08;101876.84;;;25.24;25.75
66887;BME280;53798;51.680;5.976;2022-09-01T11:30:46;101873.53;;;25.20;26.29
66887;BME280;53798;51.680;5.976;2022-09-01T11:36:33;101861.88;;;25.31;26.66
66887;BME280;53798;51.680;5.976;2022-09-01T11:41:51;101848.84;;;25.49;25.94
66887;BME280;53798;51.680;5.976;2022-09-01T11:44:32;101858.19;;;25.68;26.78
66887;BME280;53798;51.680;5.976;2022-09-01T11:47:23;101852.94;;;25.89;26.62
66887;BME280;53798;51.680;5.976;2022-09-01T11:49:58;101845.81;;;26.11;26.66
66887;BME280;53798;51.680;5.976;2022-09-01T11:52:31;101843.09;;;26.33;25.57
66887;BME280;53798;51.680;5.976;2022-09-01T11:55:04;101840.38;;;26.33;25.13
66887;BME280;53798;51.680;5.976;2022-09-01T11:57:36;101838.06;;;26.29;25.60
66887;BME280;53798;51.680;5.976;2022-09-01T12:00:12;101850.81;;;26.38;25.46
66887;BME280;53798;51.680;5.976;2022-09-01T12:02:48;101837.59;;;26.35;25.34
66887;BME280;53798;51.680;5.976;2022-09-01T12:05:33;101834.63;;;26.27;25.46
66887;BME280;53798;51.680;5.976;2022-09-01T12:08:10;101822.38;;;26.23;25.76
66887;BME280;53798;51.680;5.976;2022-09-01T12:10:49;101822.38;;;26.23;25.54
66887;BME280;53798;51.680;5.976;2022-09-01T12:13:22;101833.75;;;26.38;24.12
66887;BME280;53798;51.680;5.976;2022-09-01T12:15:55;101820.34;;;26.36;24.45
66887;BME280;53798;51.680;5.976;2022-09-01T12:18:50;101829.94;;;26.40;24.73
66887;BME280;53798;51.680;5.976;2022-09-01T12:23:51;101824.88;;;26.47;24.73
66887;BME280;53798;51.680;5.976;2022-09-01T12:26:24;101820.72;;;26.43;25.01
66887;BME280;53798;51.680;5.976;2022-09-01T12:28:53;101820.31;;;26.47;23.90
66887;BME280;53798;51.680;5.976;2022-09-01T12:31:24;101819.94;;;26.52;23.81
66887;BME280;53798;51.680;5.976;2022-09-01T12:33:54;101821.16;;;26.59;23.64
66887;BME280;53798;51.680;5.976;2022-09-01T12:36:27;101807.50;;;26.61;24.19
66887;BME280;53798;51.680;5.976;2022-09-01T12:39:21;101814.50;;;26.63;23.98
66887;BME280;53798;51.680;5.976;2022-09-01T12:44:49;101804.16;;;26.80;24.22
66887;BME280;53798;51.680;5.976;2022-09-01T12:52:47;101804.41;;;26.98;23.72
66887;BME280;53798;51.680;5.976;2022-09-01T12:55:24;101802.44;;;26.79;24.06
66887;BME280;53798;51.680;5.976;2022-09-01T12:58:19;101800.97;;;26.63;24.04
66887;BME280;53798;51.680;5.976;2022-09-01T13:01:05;101798.66;;;26.59;24.13
66887;BME280;53798;51.680;5.976;2022-09-01T13:06:33;101787.53;;;26.85;23.67
66887;BME280;53798;51.680;5.976;2022-09-01T13:09:00;101791.81;;;26.87;23.94
66887;BME280;53798;51.680;5.976;2022-09-01T13:11:31;101796.75;;;26.82;24.28
66887;BME280;53798;51.680;5.976;2022-09-01T13:14:19;101783.84;;;26.86;24.25
66887;BME280;53798;51.680;5.976;2022-09-01T13:16:47;101775.19;;;26.92;24.74
66887;BME280;53798;51.680;5.976;2022-09-01T13:19:14;101773.59;;;27.10;23.39
66887;BME280;53798;51.680;5.976;2022-09-01T13:21:53;101777.78;;;27.15;22.93
66887;BME280;53798;51.680;5.976;2022-09-01T13:24:20;101776.72;;;27.06;22.84
66887;BME280;53798;51.680;5.976;2022-09-01T13:26:54;101778.50;;;26.95;23.24
66887;BME280;53798;51.680;5.976;2022-09-01T13:29:42;101768.84;;;26.81;23.54
66887;BME280;53798;51.680;5.976;2022-09-01T13:32:13;101759.16;;;26.79;23.92
66887;BME280;53798;51.680;5.976;2022-09-01T13:34:46;101760.88;;;26.80;23.86
66887;BME280;53798;51.680;5.976;2022-09-01T13:37:16;101758.47;;;26.87;23.71
66887;BME280;53798;51.680;5.976;2022-09-01T13:39:44;101755.94;;;26.85;24.04
66887;BME280;53798;51.680;5.976;2022-09-01T13:42:13;101756.06;;;26.84;23.88
66887;BME280;53798;51.680;5.976;2022-09-01T13:44:42;101747.81;;;26.85;23.78
66887;BME280;53798;51.680;5.976;2022-09-01T13:47:11;101747.22;;;26.81;23.98
66887;BME280;53798;51.680;5.976;2022-09-01T13:49:56;101744.00;;;26.76;23.83
66887;BME280;53798;51.680;5.976;2022-09-01T13:52:41;101748.81;;;26.73;24.14
66887;BME280;53798;51.680;5.976;2022-09-01T13:55:13;101737.25;;;26.82;24.20
66887;BME280;53798;51.680;5.976;2022-09-01T13:57:43;101742.41;;;26.85;24.45
66887;BME280;53798;51.680;5.976;2022-09-01T14:00:13;101755.47;;;27.01;24.34
66887;BME280;53798;51.680;5.976;2022-09-01T14:02:45;101739.16;;;27.12;24.57
66887;BME280;53798;51.680;5.976;2022-09-01T14:05:20;101742.38;;;27.27;24.71
66887;BME280;53798;51.680;5.976;2022-09-01T14:07:49;101734.53;;;27.46;24.13
66887;BME280;53798;51.680;5.976;2022-09-01T14:10:19;101739.44;;;27.62;24.11
66887;BME280;53798;51.680;5.976;2022-09-01T14:12:49;101727.03;;;27.69;23.76
66887;BME280;53798;51.680;5.976;2022-09-01T14:15:18;101724.19;;;27.70;23.77
66887;BME280;53798;51.680;5.976;2022-09-01T14:17:55;101733.91;;;27.83;23.58
66887;BME280;53798;51.680;5.976;2022-09-01T14:20:26;101729.97;;;27.87;22.85
66887;BME280;53798;51.680;5.976;2022-09-01T14:23:03;101731.38;;;27.81;23.03
66887;BME280;53798;51.680;5.976;2022-09-01T14:25:33;101727.66;;;27.82;22.91
66887;BME280;53798;51.680;5.976;2022-09-01T14:28:04;101726.38;;;27.77;22.67
66887;BME280;53798;51.680;5.976;2022-09-01T14:30:32;101713.78;;;27.66;23.01
66887;BME280;53798;51.680;5.976;2022-09-01T14:33:00;101727.03;;;27.69;23.81
66887;BME280;53798;51.680;5.976;2022-09-01T14:35:29;101712.25;;;27.83;23.57
66887;BME280;53798;51.680;5.976;2022-09-01T14:38:00;101712.72;;;27.98;23.10